^^
Saratoga-Weather Station Historical Data
Daily Summary for March 20, 2021 Units:  English    Metric   Both
Daily Weekly Monthly Yearly Custom
  High: Low: Average:
Temperature: 62.1 °F 47.7 °F 56.5 °F
Dew Point: 48.2 °F 44.1 °F 46.2 °F
Humidity: 93% 53% 70%
Wind Speed: 8.9mph 0mph 2.2mph
Wind Gust: 13mph - -
Wind- - WSW
Pressure: 30.2 in 29.9 in -
Precipitation: 0 in    
Historical Graphs
 
 
Tabular Data for March 20, 2021
Time Temperature Dew Point Pressure Wind Wind Speed Wind Gust Humidity Rainfall Rate (Hourly) solar
06:49 47.7 °F 45.7 °F 30.2 in Calm   1 mph 93% 0 in 47 W/m2
06:54 47.8 °F 45.9 °F 30.2 in Calm     93% 0 in 56 W/m2
06:59 47.8 °F 45.9 °F 30.2 in West 2.9 mph 4 mph 93% 0 in 49 W/m2
07:04 48 °F 46 °F 30.2 in Calm   3 mph 93% 0 in 56 W/m2
07:09 48 °F 46 °F 30.2 in WSW 4.9 mph 5 mph 93% 0 in 60 W/m2
07:14 48.2 °F 46.2 °F 30.2 in Calm   2 mph 93% 0 in 67 W/m2
07:19 48.2 °F 46 °F 30.2 in West 2 mph 5 mph 92% 0 in 69 W/m2
07:24 48.4 °F 46.2 °F 30.2 in West 2 mph 2 mph 92% 0 in 84 W/m2
07:29 48.4 °F 46.2 °F 30.2 in West 2 mph 3 mph 92% 0 in 107 W/m2
07:34 48.7 °F 46.6 °F 30.2 in WNW 2.9 mph 6 mph 92% 0 in 97 W/m2
07:39 48.9 °F 46.8 °F 30.2 in WNW 6.9 mph 8 mph 92% 0 in 121 W/m2
07:44 49.1 °F 46.9 °F 30.2 in SSW 4 mph 7 mph 92% 0 in 128 W/m2
07:49 49.5 °F 46.9 °F 30.2 in WNW 2.9 mph 8 mph 91% 0 in 244 W/m2
07:54 49.8 °F 46.9 °F 30.2 in WNW 4 mph 6 mph 90% 0 in 132 W/m2
07:59 49.8 °F 46.8 °F 30.2 in West 4 mph 9 mph 89% 0 in 123 W/m2
08:04 49.6 °F 45.9 °F 30.2 in West 4 mph 8 mph 87% 0 in 86 W/m2
08:09 49.6 °F 46.2 °F 30.2 in West 6 mph 9 mph 88% 0 in 105 W/m2
08:14 50 °F 46.9 °F 30.2 in West 8.1 mph 9 mph 89% 0 in 98 W/m2
08:19 50 °F 46.6 °F 30.2 in WNW 2.9 mph 8 mph 88% 0 in 113 W/m2
08:24 49.8 °F 46 °F 30.2 in WNW 6.9 mph 10 mph 87% 0 in 125 W/m2
08:29 49.6 °F 45.9 °F 30.2 in West 6.9 mph 9 mph 87% 0 in 116 W/m2
08:34 49.8 °F 46 °F 30.2 in West 2.9 mph 10 mph 87% 0 in 174 W/m2
08:39 50.2 °F 46.8 °F 30.2 in West 2 mph 4 mph 88% 0 in 171 W/m2
08:44 50.2 °F 46.2 °F 30.2 in West 4 mph 8 mph 86% 0 in 90 W/m2
08:49 50.2 °F 46.2 °F 30.2 in West 2 mph 7 mph 86% 0 in 120 W/m2
08:54 50.4 °F 46.4 °F 30.2 in NW 2 mph 7 mph 86% 0 in 186 W/m2
08:59 50.5 °F 46.2 °F 30.2 in WNW 2 mph 4 mph 85% 0 in 225 W/m2
09:04 50.5 °F 46.2 °F 30.2 in West 8.1 mph 8 mph 85% 0 in 190 W/m2
09:09 50.4 °F 46 °F 30.2 in West 4 mph 7 mph 85% 0 in 153 W/m2
09:14 50.2 °F 45.9 °F 30.2 in WNW 4 mph 6 mph 85% 0 in 232 W/m2
09:19 50.2 °F 45.5 °F 30.2 in WNW 0.9 mph 7 mph 84% 0 in 243 W/m2
09:24 50.5 °F 46.2 °F 30.2 in SW 0.9 mph 4 mph 85% 0 in 192 W/m2
09:29 50.5 °F 46.6 °F 30.2 in WNW 2 mph 4 mph 86% 0 in 179 W/m2
09:34 50.7 °F 46.8 °F 30.2 in Calm   2 mph 86% 0 in 179 W/m2
09:39 50.9 °F 46.9 °F 30.2 in West 2 mph 4 mph 86% 0 in 202 W/m2
09:44 50.7 °F 46.4 °F 30.2 in WSW 0.9 mph 3 mph 85% 0 in 234 W/m2
09:49 50.7 °F 46 °F 30.2 in NW 2.9 mph 8 mph 84% 0 in 229 W/m2
09:54 50.7 °F 46 °F 30.2 in West 2.9 mph 6 mph 84% 0 in 264 W/m2
09:59 50.9 °F 46.2 °F 30.2 in West 6.9 mph 7 mph 84% 0 in 221 W/m2
10:04 51.1 °F 46.4 °F 30.2 in West 4 mph 5 mph 84% 0 in 216 W/m2
10:09 50.7 °F 45.7 °F 30.2 in WNW 0.9 mph 5 mph 83% 0 in 248 W/m2
10:14 50.7 °F 45.7 °F 30.2 in Calm   3 mph 83% 0 in 264 W/m2
10:19 51.1 °F 46.4 °F 30.2 in WSW 4 mph 6 mph 84% 0 in 269 W/m2
10:24 51.4 °F 46.4 °F 30.2 in West 6 mph 8 mph 83% 0 in 506 W/m2
10:29 51.6 °F 46.6 °F 30.2 in WNW 8.9 mph 9 mph 83% 0 in 367 W/m2
10:34 51.6 °F 46.2 °F 30.2 in WSW 4.9 mph 7 mph 82% 0 in 309 W/m2
10:39 51.8 °F 46.4 °F 30.2 in NE 0.9 mph 6 mph 82% 0 in 292 W/m2
10:44 52.2 °F 46.6 °F 30.2 in WNW 2 mph 3 mph 81% 0 in 385 W/m2
10:49 52.5 °F 46.6 °F 30.2 in West 0.9 mph 9 mph 80% 0 in 322 W/m2
10:54 52.7 °F 46.8 °F 30.2 in WNW 4 mph 7 mph 80% 0 in 313 W/m2
10:59 52.5 °F 46.6 °F 30.2 in West 2.9 mph 7 mph 80% 0 in 350 W/m2
11:04 52.5 °F 46.6 °F 30.2 in WSW 2.9 mph 10 mph 80% 0 in 399 W/m2
11:09 52.5 °F 46.6 °F 30.2 in WNW 2.9 mph 3 mph 80% 0 in 570 W/m2
11:14 52.7 °F 46.4 °F 30.2 in West 2 mph 3 mph 79% 0 in 422 W/m2
11:19 52.3 °F 45.7 °F 30.2 in NW 0.9 mph 6 mph 78% 0 in 522 W/m2
11:25 52.5 °F 46.6 °F 30.2 in WNW 4.9 mph 8 mph 80% 0 in 429 W/m2
11:30 52.5 °F 46.2 °F 30.2 in North 2 mph 8 mph 79% 0 in 432 W/m2
11:35 52.9 °F 46.6 °F 30.2 in West 6 mph 10 mph 79% 0 in 425 W/m2
11:40 53.1 °F 46.8 °F 30.2 in West 2.9 mph 4 mph 79% 0 in 255 W/m2
11:45 53.2 °F 46.9 °F 30.2 in NW 0.9 mph 3 mph 79% 0 in 520 W/m2
11:50 53.8 °F 46.8 °F 30.2 in Calm   3 mph 77% 0 in 399 W/m2
11:55 54.1 °F 46.8 °F 30.2 in WNW 4 mph 5 mph 76% 0 in 387 W/m2
12:00 54.5 °F 47.1 °F 30.2 in NW 8.1 mph 8 mph 76% 0 in 359 W/m2
12:05 54.9 °F 47.5 °F 30.2 in WSW 4 mph 10 mph 76% 0 in 991 W/m2
12:10 55.2 °F 47.1 °F 30.2 in ENE 0.9 mph 8 mph 74% 0 in 1150 W/m2
12:15 55.9 °F 48.2 °F 30.2 in NW 4.9 mph 10 mph 75% 0 in 1121 W/m2
12:20 56.8 °F 48.2 °F 30.2 in NNW 4 mph 7 mph 73% 0 in 1176 W/m2
12:25 56.8 °F 47.5 °F 30.2 in NW 2.9 mph 9 mph 71% 0 in 357 W/m2
12:30 56.7 °F 47.7 °F 30.2 in West 4 mph 8 mph 72% 0 in 357 W/m2
12:35 56.8 °F 47.5 °F 30.2 in WNW 4.9 mph 5 mph 71% 0 in 264 W/m2
12:40 56.3 °F 46.6 °F 30.2 in NNE 0.9 mph 2 mph 70% 0 in 230 W/m2
12:45 56.7 °F 47.7 °F 30.2 in West 6.9 mph 7 mph 72% 0 in 1041 W/m2
12:50 57.2 °F 46.8 °F 30.2 in West 4 mph 6 mph 68% 0 in 976 W/m2
12:55 57.4 °F 46 °F 30.2 in WNW 2 mph 6 mph 66% 0 in 997 W/m2
13:00 57.6 °F 46.2 °F 30.2 in West 4 mph 13 mph 66% 0 in 991 W/m2
13:05 57.9 °F 47.5 °F 30.2 in ENE 2.9 mph 6 mph 68% 0 in 1071 W/m2
13:10 58.1 °F 47.7 °F 30.2 in WNW 2 mph 13 mph 68% 0 in 1120 W/m2
13:15 58.6 °F 47.7 °F 30.2 in WNW 8.1 mph 10 mph 67% 0 in 1063 W/m2
13:20 58.5 °F 46.4 °F 30.2 in West 4 mph 5 mph 64% 0 in 1020 W/m2
13:25 58.5 °F 47.1 °F 30.2 in NW 2 mph 10 mph 66% 0 in 1035 W/m2
13:30 59.2 °F 46.9 °F 30.2 in NNW 0.9 mph 4 mph 64% 0 in 972 W/m2
13:35 59.4 °F 46.8 °F 30.1 in NW 0.9 mph 3 mph 63% 0 in 861 W/m2
13:40 59.5 °F 47.8 °F 30.1 in South 2 mph 3 mph 65% 0 in 904 W/m2
13:45 60.3 °F 48 °F 30.1 in WNW 2.9 mph 6 mph 64% 0 in 904 W/m2
13:50 60.3 °F 46.4 °F 30.1 in WNW 2 mph 8 mph 60% 0 in 860 W/m2
13:55 59.7 °F 46.8 °F 30.1 in West 0.9 mph 2 mph 62% 0 in 267 W/m2
14:00 59.5 °F 46.6 °F 30.1 in Calm   4 mph 62% 0 in 288 W/m2
14:05 59.4 °F 46.4 °F 30.1 in WNW 2 mph 3 mph 62% 0 in 316 W/m2
14:10 59.5 °F 46.6 °F 30.1 in NNW 2 mph 3 mph 62% 0 in 863 W/m2
14:15 60.3 °F 47.1 °F 30.1 in NNW 2 mph 4 mph 62% 0 in 861 W/m2
14:20 60.8 °F 46.8 °F 30.1 in West 2 mph 4 mph 60% 0 in 274 W/m2
14:25 60.8 °F 46.8 °F 30.1 in WNW 6.9 mph 8 mph 60% 0 in 882 W/m2
14:30 60.4 °F 46.4 °F 30.1 in WNW 2.9 mph 7 mph 60% 0 in 881 W/m2
14:35 60.6 °F 46.6 °F 30.1 in NNE 0.9 mph 3 mph 60% 0 in 865 W/m2
14:40 61 °F 46.6 °F 30.1 in WNW 0.9 mph 6 mph 59% 0 in 396 W/m2
14:45 60.6 °F 46.2 °F 30.1 in WNW 2.9 mph 5 mph 59% 0 in 397 W/m2
14:50 60.8 °F 46.4 °F 30.1 in WSW 4.9 mph 7 mph 59% 0 in 780 W/m2
14:55 61.2 °F 46.2 °F 30.1 in WNW 4.9 mph 10 mph 58% 0 in 589 W/m2
15:00 61.3 °F 46.9 °F 30.1 in West 2.9 mph 5 mph 59% 0 in 371 W/m2
15:05 61.2 °F 45.9 °F 30.1 in ENE 0.9 mph 5 mph 57% 0 in 466 W/m2
15:10 61.2 °F 46.8 °F 30.1 in WNW 2.9 mph 4 mph 59% 0 in 643 W/m2
15:15 61.3 °F 46 °F 30.1 in NNW 2.9 mph 3 mph 57% 0 in 603 W/m2
15:20 61.5 °F 45.7 °F 30.1 in West 2 mph 4 mph 56% 0 in 571 W/m2
15:25 61.9 °F 46.9 °F 30.1 in WNW 4 mph 4 mph 58% 0 in 531 W/m2
15:30 61.7 °F 45.9 °F 30.1 in East 0.9 mph 7 mph 56% 0 in 485 W/m2
15:35 61.5 °F 46.2 °F 30.1 in NW 2 mph 5 mph 57% 0 in 417 W/m2
15:40 61.9 °F 46.4 °F 30.1 in SE 0.9 mph 3 mph 57% 0 in 452 W/m2
15:45 61.9 °F 46 °F 30.1 in ENE 4.9 mph 10 mph 56% 0 in 494 W/m2
15:50 61.5 °F 46.2 °F 30.1 in NW 2 mph 6 mph 57% 0 in 538 W/m2
15:55 61.9 °F 46 °F 30.1 in WNW 0.9 mph 6 mph 56% 0 in 357 W/m2
16:00 61.9 °F 46.9 °F 30.1 in North 2 mph 3 mph 58% 0 in 489 W/m2
16:05 62.1 °F 46.2 °F 30.1 in NW 2 mph 6 mph 56% 0 in 487 W/m2
16:10 62.1 °F 46.6 °F 30.1 in East 2 mph 4 mph 57% 0 in 362 W/m2
16:15 62.1 °F 45.7 °F 30.1 in North 4 mph 5 mph 55% 0 in 325 W/m2
16:20 61.7 °F 45.9 °F 30.1 in North 2 mph 11 mph 56% 0 in 320 W/m2
16:25 61.5 °F 44.2 °F 30.1 in NW 2.9 mph 9 mph 53% 0 in 315 W/m2
16:30 61.3 °F 45 °F 30.1 in NW 2 mph 11 mph 55% 0 in 301 W/m2
16:35 61.3 °F 45 °F 30.1 in WNW 8.1 mph 9 mph 55% 0 in 294 W/m2
16:40 61.3 °F 45.5 °F 30.1 in WNW 2.9 mph 4 mph 56% 0 in 274 W/m2
16:45 61.3 °F 45.5 °F 30.1 in ESE 2 mph 6 mph 56% 0 in 213 W/m2
16:50 61.3 °F 45.5 °F 30.1 in ENE 4.9 mph 5 mph 56% 0 in 241 W/m2
16:55 61.3 °F 45 °F 30.1 in NE 0.9 mph 2 mph 55% 0 in 218 W/m2
17:01 61.3 °F 46 °F 30.1 in NW 2.9 mph 7 mph 57% 0 in 209 W/m2
17:06 61.3 °F 46 °F 30.1 in NW 0.9 mph 4 mph 57% 0 in 237 W/m2
17:11 61.5 °F 44.8 °F 30.1 in NW 0.9 mph 3 mph 54% 0 in 220 W/m2
17:16 61.3 °F 45 °F 30.1 in WNW 0.9 mph 4 mph 55% 0 in 206 W/m2
17:21 61.3 °F 45.5 °F 30.1 in WNW 2.9 mph 4 mph 56% 0 in 183 W/m2
17:26 61.2 °F 45.3 °F 30.1 in WSW 0.9 mph 9 mph 56% 0 in 192 W/m2
17:31 61 °F 45.1 °F 30.1 in WNW 0.9 mph 10 mph 56% 0 in 232 W/m2
17:36 61 °F 45.1 °F 30.1 in North 2.9 mph 6 mph 56% 0 in 255 W/m2
17:41 61.2 °F 46.8 °F 30.1 in Calm   10 mph 59% 0 in 236 W/m2
17:46 61.3 °F 45.5 °F 30.1 in NW 4.9 mph 5 mph 56% 0 in 234 W/m2
17:51 61.3 °F 45.5 °F 30.1 in East 2 mph 9 mph 56% 0 in 237 W/m2
17:56 61.3 °F 45.5 °F 30 in WNW 2 mph 6 mph 56% 0 in 281 W/m2
18:01 61.3 °F 45.5 °F 30 in NNW 2 mph 2 mph 56% 0 in 197 W/m2
18:06 61.3 °F 45 °F 30 in ENE 2 mph 5 mph 55% 0 in 183 W/m2
18:11 61.3 °F 45.5 °F 30 in NW 2.9 mph 4 mph 56% 0 in 146 W/m2
18:16 61.2 °F 45.3 °F 30 in NNW 2.9 mph 3 mph 56% 0 in 167 W/m2
18:21 61.2 °F 45.3 °F 30 in WNW 0.9 mph 3 mph 56% 0 in 185 W/m2
18:26 61.2 °F 45.9 °F 30 in West 4 mph 4 mph 57% 0 in 160 W/m2
18:31 61.2 °F 45.3 °F 30 in Calm   3 mph 56% 0 in 155 W/m2
18:36 61.3 °F 45.5 °F 30 in West 0.9 mph 6 mph 56% 0 in 146 W/m2
18:41 61.2 °F 45.9 °F 30 in North 2 mph 3 mph 57% 0 in 135 W/m2
18:46 61.2 °F 45.9 °F 30 in WNW 2.9 mph 6 mph 57% 0 in 125 W/m2
18:51 61.2 °F 45.9 °F 30 in NW 0.9 mph 3 mph 57% 0 in 134 W/m2
18:56 61.2 °F 45.3 °F 30 in WSW 0.9 mph 8 mph 56% 0 in 118 W/m2
19:01 61.2 °F 45.3 °F 30 in Calm   3 mph 56% 0 in 86 W/m2
19:06 61 °F 44.8 °F 30 in NNW 0.9 mph 6 mph 55% 0 in 79 W/m2
19:11 61 °F 44.8 °F 30 in WSW 0.9 mph 3 mph 55% 0 in 90 W/m2
19:16 60.8 °F 45 °F 30 in East 2 mph 2 mph 56% 0 in 88 W/m2
19:21 60.8 °F 44.6 °F 30 in Calm   1 mph 55% 0 in 100 W/m2
19:26 60.8 °F 44.6 °F 30 in NNW 0.9 mph 3 mph 55% 0 in 93 W/m2
19:31 60.6 °F 44.4 °F 30 in NNW 2 mph 6 mph 55% 0 in 93 W/m2
19:36 60.4 °F 45.1 °F 30 in NNW 0.9 mph 2 mph 57% 0 in 93 W/m2
19:41 60.4 °F 44.2 °F 30 in Calm   3 mph 55% 0 in 95 W/m2
19:46 60.4 °F 45.1 °F 30 in Calm     57% 0 in 90 W/m2
19:51 60.3 °F 45 °F 30 in Calm   1 mph 57% 0 in 67 W/m2
19:56 60.1 °F 44.8 °F 30 in ESE 0.9 mph 2 mph 57% 0 in 62 W/m2
20:01 60.1 °F 45.3 °F 30 in Calm   1 mph 58% 0 in 49 W/m2
20:06 59.7 °F 44.1 °F 30 in WSW 0.9 mph 2 mph 56% 0 in 44 W/m2
20:11 59.5 °F 44.2 °F 30 in WNW 2 mph 3 mph 57% 0 in 42 W/m2
20:16 59.5 °F 44.2 °F 30 in East 2 mph 3 mph 57% 0 in 39 W/m2
20:21 59.4 °F 45.5 °F 30 in East 0.9 mph 1 mph 60% 0 in 39 W/m2
20:26 59.2 °F 46.2 °F 30 in Calm   3 mph 62% 0 in 32 W/m2
20:31 59 °F 46.4 °F 30 in Calm     63% 0 in 25 W/m2
20:36 58.6 °F 46 °F 30 in Calm   1 mph 63% 0 in 23 W/m2
20:41 58.5 °F 46.8 °F 30 in East 0.9 mph 1 mph 65% 0 in 23 W/m2
20:46 58.3 °F 46.9 °F 30 in Calm     66% 0 in 19 W/m2
20:51 58.1 °F 47.1 °F 30 in ENE 0.9 mph 3 mph 67% 0 in 14 W/m2
20:56 57.7 °F 46.9 °F 30 in Calm   1 mph 67% 0 in 11 W/m2
21:01 57.4 °F 47.3 °F 30 in Calm   3 mph 69% 0 in 7 W/m2
21:06 57 °F 47.3 °F 30 in Calm   1 mph 70% 0 in 7 W/m2
21:11 56.8 °F 47.5 °F 30 in Calm   1 mph 71% 0 in 5 W/m2
21:16 56.7 °F 47.3 °F 30 in ENE 0.9 mph 1 mph 71% 0 in 0 W/m2
21:21 56.3 °F 47.8 °F 30 in Calm   1 mph 73% 0 in 0 W/m2
21:26 55.9 °F 47.5 °F 30 in ENE 0.9 mph 1 mph 73% 0 in 5 W/m2
21:31 55.6 °F 47.1 °F 30 in Calm     73% 0 in 0 W/m2
21:36 55.2 °F 47.1 °F 30 in ENE 0.9 mph 1 mph 74% 0 in 0 W/m2
21:42 55 °F 46.9 °F 30 in Calm     74% 0 in 0 W/m2
21:47 54.7 °F 46.9 °F 30 in ENE 0.9 mph 1 mph 75% 0 in 0 W/m2
21:52 54.5 °F 46.8 °F 30 in Calm   1 mph 75% 0 in 0 W/m2
21:57 54.3 °F 46.6 °F 30 in Calm     75% 0 in 0 W/m2
22:02 54.1 °F 46.8 °F 30 in Calm     76% 0 in 0 W/m2
22:07 54.1 °F 47.1 °F 30 in SE 2 mph 2 mph 77% 0 in 0 W/m2
22:12 54 °F 46.9 °F 30 in SE 0.9 mph 3 mph 77% 0 in 0 W/m2
22:17 54 °F 46.9 °F 30 in SE 0.9 mph 2 mph 77% 0 in 0 W/m2
22:22 54 °F 46.6 °F 30 in Calm     76% 0 in 0 W/m2
22:27 54 °F 46.6 °F 30 in Calm   2 mph 76% 0 in 0 W/m2
22:32 54 °F 46.2 °F 30 in Calm   2 mph 75% 0 in 0 W/m2
22:37 54.1 °F 46 °F 30 in SSW 2 mph 2 mph 74% 0 in 0 W/m2
22:42 54.7 °F 45.9 °F 30 in Calm   1 mph 72% 0 in 0 W/m2
22:47 55 °F 45.5 °F 30 in WNW 0.9 mph 3 mph 70% 0 in 0 W/m2
22:52 55.8 °F 45.7 °F 30 in NNE 0.9 mph 3 mph 69% 0 in 0 W/m2
22:57 56.1 °F 45.7 °F 30 in North 0.9 mph 3 mph 68% 0 in 0 W/m2
23:02 56.5 °F 45.7 °F 30 in NE 0.9 mph 2 mph 67% 0 in 0 W/m2
23:07 56.7 °F 45.9 °F 29.9 in NNE 0.9 mph 2 mph 67% 0 in 0 W/m2
23:12 56.5 °F 46 °F 29.9 in NE 2 mph 4 mph 68% 0 in 0 W/m2
23:17 56.7 °F 45.5 °F 29.9 in North 0.9 mph 4 mph 66% 0 in 0 W/m2
23:22 56.7 °F 45.5 °F 29.9 in NNW 2.9 mph 4 mph 66% 0 in 0 W/m2
23:27 56.7 °F 45.9 °F 29.9 in NNE 2 mph 3 mph 67% 0 in 0 W/m2
23:32 56.7 °F 45.5 °F 29.9 in NNE 2 mph 2 mph 66% 0 in 0 W/m2
23:37 56.7 °F 45.5 °F 29.9 in NNW 2 mph 3 mph 66% 0 in 0 W/m2
23:42 56.7 °F 45.5 °F 29.9 in Calm   4 mph 66% 0 in 0 W/m2
23:47 56.7 °F 45.5 °F 29.9 in Calm   5 mph 66% 0 in 0 W/m2
23:52 56.7 °F 45.5 °F 29.9 in NNE 2 mph 3 mph 66% 0 in 0 W/m2
23:57 56.7 °F 45.5 °F 29.9 in ENE 2 mph 5 mph 66% 0 in 0 W/m2
Juneau County Weather
Compliments of Weather Underground - 4 mb